Hannah, North Dakota
Current Conditions -  °F | °C
As of 9:35 PM on Friday 19 Dec 2014 (Local Time) from KD55 Reporting Station
Haze Haze  
Wind Chill: 19°   Ceiling: 400
Heat Index: 25°   Visibility: 5mi
Dew Point: 25°   Wind: 5mph
Humidity: 100%   Direction: 160°SSE
Pressure: 29.95"   Gusts: NA
Location:  48.97°N, 98.69°W
Report Text: KD55 200335Z AUTO 16004KT 5SM BR OVC004 M04/M04 A2995 RMK AO2
Loading
Personal Weather Stations






























Interactive Weather Map New forecast layout! Learn more

10-Day Weather Forecast

Advertisements
Track Severe Weather on mobile